createdAt,value
2019-05-18T00:00:29.038Z,80.04
2019-05-18T00:05:25.064Z,80.10
2019-05-18T00:10:20.988Z,79.30
2019-05-18T00:15:16.913Z,80.46
2019-05-18T00:20:15.036Z,80.44
2019-05-18T00:25:15.524Z,81.24
2019-05-18T00:30:14.342Z,81.34
2019-05-18T00:35:12.162Z,81.71
2019-05-18T00:40:08.609Z,81.69
2019-05-18T00:45:05.746Z,82.73
2019-05-18T00:50:26.082Z,83.07
2019-05-18T00:55:22.114Z,82.38
2019-05-18T01:00:18.145Z,82.53
2019-05-18T01:05:14.216Z,82.91
2019-05-18T01:10:10.602Z,82.93
2019-05-18T01:15:07.281Z,84.02
2019-05-18T01:20:13.836Z,84.39
2019-05-18T01:25:09.940Z,85.44
2019-05-18T01:30:06.979Z,84.67
2019-05-18T01:35:04.793Z,84.91
2019-05-18T01:40:00.862Z,85.59
2019-05-18T01:44:56.804Z,86.59
2019-05-18T01:49:56.940Z,85.29
2019-05-18T01:54:52.971Z,85.32
2019-05-18T01:59:48.898Z,86.45
2019-05-18T02:04:44.792Z,85.56
2019-05-18T02:09:40.724Z,86.02
2019-05-18T02:14:36.635Z,86.29
2019-05-18T02:19:33.954Z,86.08
2019-05-18T02:24:29.990Z,86.22
2019-05-18T02:29:25.926Z,86.05
2019-05-18T02:34:21.883Z,85.93
2019-05-18T02:39:17.812Z,85.65
2019-05-18T02:44:13.763Z,86.33
2019-05-18T02:49:09.688Z,86.06
2019-05-18T02:54:05.718Z,86.17
2019-05-18T02:59:01.649Z,85.97
2019-05-18T03:03:57.658Z,86.78
2019-05-18T03:08:53.586Z,87.71
2019-05-18T03:13:49.613Z,86.73
2019-05-18T03:18:45.650Z,86.94
2019-05-18T03:23:41.623Z,86.03
2019-05-18T03:28:37.549Z,86.10
2019-05-18T03:33:33.474Z,86.01
2019-05-18T03:38:29.405Z,86.16
2019-05-18T03:43:25.441Z,85.79
2019-05-18T03:48:21.584Z,85.62
2019-05-18T03:53:18.398Z,85.66
2019-05-18T03:58:14.862Z,86.63
2019-05-18T04:03:10.854Z,86.76
2019-05-18T04:08:06.791Z,87.51
2019-05-18T04:13:02.718Z,86.46
2019-05-18T04:17:58.711Z,86.35
2019-05-18T04:22:54.718Z,86.13
2019-05-18T04:27:50.649Z,85.46
2019-05-18T04:32:46.573Z,86.08
2019-05-18T04:37:42.508Z,86.18
2019-05-18T04:42:38.478Z,86.65
2019-05-18T04:47:34.414Z,85.78
2019-05-18T04:52:30.347Z,84.88
2019-05-18T04:57:26.270Z,85.04
2019-05-18T05:02:22.697Z,85.38
2019-05-18T05:07:18.630Z,85.63
2019-05-18T05:12:14.556Z,84.34
2019-05-18T05:17:10.454Z,85.21
2019-05-18T05:22:06.407Z,85.11
2019-05-18T05:27:02.337Z,84.45
2019-05-18T05:31:58.270Z,83.12
2019-05-18T05:36:54.306Z,82.33
2019-05-18T05:41:50.241Z,78.81
2019-05-18T05:46:46.178Z,77.78
2019-05-18T05:51:42.105Z,76.59
2019-05-18T05:56:38.033Z,73.53
2019-05-18T06:01:34.004Z,71.18
2019-05-18T06:06:29.934Z,70.73
2019-05-18T06:11:25.856Z,68.05
2019-05-18T06:16:21.789Z,68.71
2019-05-18T06:21:17.708Z,68.77
2019-05-18T06:26:13.646Z,67.22
2019-05-18T06:31:09.576Z,68.73
2019-05-18T06:36:05.513Z,69.26
2019-05-18T06:41:02.237Z,70.25
2019-05-18T06:45:58.167Z,68.73
2019-05-18T06:51:06.301Z,68.95
2019-05-18T06:55:52.645Z,63.11
2019-05-18T07:00:48.578Z,63.78
2019-05-18T07:05:45.258Z,58.63
2019-05-18T07:10:41.569Z,59.40
2019-05-18T07:15:37.494Z,55.30
2019-05-18T07:20:33.774Z,56.02
2019-05-18T07:25:30.402Z,53.82
2019-05-18T07:30:26.428Z,54.37
2019-05-18T07:35:22.348Z,52.89
2019-05-18T07:40:18.378Z,53.58
2019-05-18T07:45:14.623Z,53.00
2019-05-18T07:50:16.350Z,51.88
2019-05-18T07:55:12.942Z,52.60
2019-05-18T08:00:09.400Z,51.31
2019-05-18T08:05:07.007Z,50.25
2019-05-18T08:10:05.043Z,49.04
2019-05-18T08:15:00.968Z,48.46
2019-05-18T08:20:01.188Z,48.58
2019-05-18T08:24:57.207Z,51.05
2019-05-18T08:29:53.137Z,52.64
2019-05-18T08:34:49.061Z,54.01
2019-05-18T08:39:44.993Z,54.49
2019-05-18T08:44:40.930Z,53.91
2019-05-18T08:49:36.834Z,58.83
2019-05-18T08:54:32.769Z,54.18
2019-05-18T08:59:28.705Z,53.10
2019-05-18T09:04:24.639Z,47.54
2019-05-18T09:09:20.568Z,50.82
2019-05-18T09:14:16.503Z,47.81
2019-05-18T09:19:12.532Z,45.71
2019-05-18T09:24:08.465Z,47.05
2019-05-18T09:29:04.617Z,51.19
2019-05-18T09:34:00.873Z,49.83
2019-05-18T09:38:56.801Z,50.32
2019-05-18T09:43:52.753Z,54.39
2019-05-18T09:48:48.677Z,48.56
2019-05-18T09:53:51.578Z,47.85
2019-05-18T09:58:42.432Z,50.36
2019-05-18T10:03:38.358Z,46.51
2019-05-18T10:08:34.391Z,49.96
2019-05-18T10:13:30.326Z,48.96
2019-05-18T10:18:26.250Z,45.17
2019-05-18T10:23:22.177Z,42.37
2019-05-18T10:28:18.112Z,43.25
2019-05-18T10:33:14.042Z,44.12
2019-05-18T10:38:09.974Z,44.45
2019-05-18T10:43:05.888Z,44.37
2019-05-18T10:48:01.964Z,46.22
2019-05-18T10:53:02.408Z,45.35
2019-05-18T10:58:02.084Z,42.60
2019-05-18T11:03:03.305Z,40.57
2019-05-18T11:08:00.146Z,43.28
2019-05-18T11:12:57.162Z,44.06
2019-05-18T11:17:53.185Z,40.44
2019-05-18T11:22:49.114Z,40.95
2019-05-18T11:27:45.038Z,39.22
2019-05-18T11:32:41.023Z,39.94
2019-05-18T11:37:36.940Z,41.75
2019-05-18T11:42:33.064Z,44.98
2019-05-18T11:47:29.093Z,43.75
2019-05-18T11:52:25.021Z,43.25
2019-05-18T11:57:21.111Z,42.09
2019-05-18T12:02:17.210Z,44.63
2019-05-18T12:07:13.202Z,44.17
2019-05-18T12:12:09.252Z,43.85
2019-05-18T12:17:05.155Z,42.61
2019-05-18T12:22:01.072Z,41.00
2019-05-18T12:26:57.191Z,43.71
2019-05-18T12:31:53.194Z,41.23
2019-05-18T12:36:49.302Z,38.99
2019-05-18T12:41:45.283Z,39.33
2019-05-18T12:46:41.283Z,41.76
2019-05-18T12:51:37.415Z,41.76
2019-05-18T12:56:33.330Z,38.53
2019-05-18T13:01:29.339Z,41.72
2019-05-18T13:06:25.266Z,40.27
2019-05-18T13:11:21.222Z,42.97
2019-05-18T13:16:17.148Z,35.60
2019-05-18T13:21:13.088Z,35.40
2019-05-18T13:26:09.128Z,36.37
2019-05-18T13:31:05.057Z,37.18
2019-05-18T13:36:01.018Z,38.82
2019-05-18T13:40:56.949Z,37.53
2019-05-18T13:45:56.541Z,36.06
2019-05-18T13:50:52.526Z,34.99
2019-05-18T13:55:48.559Z,37.57
2019-05-18T14:00:44.555Z,38.23
2019-05-18T14:05:45.272Z,36.08
2019-05-18T14:10:45.675Z,36.76
2019-05-18T14:15:42.585Z,37.61
2019-05-18T14:20:39.812Z,41.38
2019-05-18T14:25:35.862Z,42.21
2019-05-18T14:30:32.268Z,41.69
2019-05-18T14:35:33.402Z,40.89
2019-05-18T14:40:31.689Z,39.35
2019-05-18T14:45:28.016Z,36.40
2019-05-18T14:50:24.724Z,35.32
2019-05-18T14:55:32.763Z,35.13
2019-05-18T15:00:19.012Z,35.26
2019-05-18T15:05:20.338Z,35.58
2019-05-18T15:10:19.162Z,36.22
2019-05-18T15:15:15.417Z,36.41
2019-05-18T15:20:15.765Z,35.96
2019-05-18T15:25:13.036Z,37.37
2019-05-18T15:30:09.253Z,36.28
2019-05-18T15:35:06.005Z,35.39
2019-05-18T15:40:03.141Z,38.56
2019-05-18T15:45:00.336Z,36.39
2019-05-18T15:50:01.179Z,36.26
2019-05-18T15:54:59.524Z,38.24
2019-05-18T15:59:56.116Z,38.60
2019-05-18T16:04:52.662Z,37.37
2019-05-18T16:09:48.594Z,39.52
2019-05-18T16:14:44.516Z,40.09
2019-05-18T16:19:50.734Z,41.40
2019-05-18T16:24:46.665Z,39.38
2019-05-18T16:29:46.209Z,40.97
2019-05-18T16:34:43.087Z,37.51
2019-05-18T16:39:39.689Z,39.70
2019-05-18T16:44:35.935Z,38.22
2019-05-18T16:49:34.397Z,36.88
2019-05-18T16:54:31.333Z,37.53
2019-05-18T16:59:28.268Z,39.62
2019-05-18T17:04:29.343Z,39.18
2019-05-18T17:09:29.439Z,39.09
2019-05-18T17:14:26.672Z,39.11
2019-05-18T17:19:26.189Z,39.46
2019-05-18T17:24:23.496Z,41.26
2019-05-18T17:29:21.581Z,37.74
2019-05-18T17:34:17.714Z,34.82
2019-05-18T17:39:13.732Z,36.82
2019-05-18T17:44:13.267Z,34.97
2019-05-18T17:49:25.848Z,36.66
2019-05-18T17:54:10.539Z,34.79
2019-05-18T17:59:08.433Z,34.93
2019-05-18T18:04:07.107Z,35.10
2019-05-18T18:09:06.746Z,36.30
2019-05-18T18:14:03.289Z,36.52
2019-05-18T18:18:59.218Z,37.56
2019-05-18T18:23:55.446Z,37.59
2019-05-18T18:28:51.471Z,38.23
2019-05-18T18:33:47.619Z,39.10
2019-05-18T18:38:47.312Z,39.28
2019-05-18T18:43:43.330Z,38.13
2019-05-18T18:48:39.257Z,40.88
2019-05-18T18:53:35.180Z,42.13
2019-05-18T18:58:31.101Z,42.75
2019-05-18T19:03:27.673Z,44.85
2019-05-18T19:08:23.569Z,43.34
2019-05-18T19:13:19.527Z,45.24
2019-05-18T19:18:16.320Z,46.63
2019-05-18T19:23:12.332Z,48.22
2019-05-18T19:28:10.173Z,48.51
2019-05-18T19:33:06.257Z,48.59
2019-05-18T19:38:02.298Z,50.21
2019-05-18T19:42:58.221Z,50.43
2019-05-18T19:47:54.198Z,51.48
2019-05-18T19:52:50.121Z,52.04
2019-05-18T19:57:46.048Z,53.07
2019-05-18T20:02:41.987Z,54.00
2019-05-18T20:07:38.015Z,54.46
2019-05-18T20:12:33.979Z,56.51
2019-05-18T20:17:29.921Z,56.13
2019-05-18T20:22:25.843Z,56.36
2019-05-18T20:27:21.773Z,57.90
2019-05-18T20:32:17.713Z,59.58
2019-05-18T20:37:13.608Z,60.45
2019-05-18T20:42:09.593Z,60.24
2019-05-18T20:47:05.529Z,60.75
2019-05-18T20:52:01.456Z,61.81
2019-05-18T20:56:57.381Z,62.21
2019-05-18T21:01:53.358Z,62.88
2019-05-18T21:06:49.392Z,64.34
2019-05-18T21:11:45.332Z,64.78
2019-05-18T21:16:41.269Z,64.35
2019-05-18T21:21:37.194Z,65.43
2019-05-18T21:26:33.125Z,66.55
2019-05-18T21:31:29.049Z,67.45
2019-05-18T21:36:25.561Z,68.22
2019-05-18T21:41:23.642Z,68.96
2019-05-18T21:46:19.593Z,69.52
2019-05-18T21:51:15.713Z,70.08
2019-05-18T21:56:11.665Z,70.79
2019-05-18T22:01:07.988Z,71.34
2019-05-18T22:06:03.918Z,71.43
2019-05-18T22:11:00.065Z,73.02
2019-05-18T22:15:56.090Z,73.65
2019-05-18T22:20:52.030Z,73.87
2019-05-18T22:25:48.000Z,74.03
2019-05-18T22:30:44.035Z,74.44
2019-05-18T22:35:39.977Z,75.27
2019-05-18T22:40:35.912Z,74.47
2019-05-18T22:45:31.876Z,74.75
2019-05-18T22:50:27.800Z,72.96
2019-05-18T22:55:23.737Z,73.01
2019-05-18T23:00:20.002Z,72.86
2019-05-18T23:05:16.014Z,71.25
2019-05-18T23:10:12.642Z,71.84
2019-05-18T23:15:08.662Z,72.44
2019-05-18T23:20:04.795Z,72.59
2019-05-18T23:25:00.813Z,73.79
2019-05-18T23:30:09.326Z,73.87
2019-05-18T23:35:06.051Z,75.46
2019-05-18T23:40:03.619Z,74.55
2019-05-18T23:44:59.553Z,75.80
2019-05-18T23:49:55.479Z,74.76
2019-05-18T23:54:51.507Z,75.71
2019-05-18T23:59:47.475Z,76.80
